Lansdowne House, Canada
Current Conditions -  °F | °C
As of 8:45 AM on Sunday 23 Nov 2014 (Local Time) from CYLH Reporting Station
Light Snow Light Snow  
Wind Chill: -5°   Ceiling: 4200
Heat Index:   Visibility: 6mi
Dew Point:   Wind: 9mph
Humidity: 92%   Direction: 70°ENE
Pressure: 29.72"   Gusts: NA
Location:  52.21°N, 87.89°W
Report Text: CYLH 231345Z AUTO 07008KT 6SM -SN OVC042 M13/M14 A2972 RMK SLP088
Loading
Personal Weather Stations






























Interactive Weather Map New forecast layout! Learn more

10-Day Weather Forecast

Advertisements
Track Severe Weather on mobile